sensor_id;sensor_type;location;lat;lon;timestamp;pressure;altitude;pressure_sealevel;temperature;humidity
40948;BME280;49382;-25.924;28.194;2023-05-29T00:00:01;85396.09;;;17.40;40.82
40948;BME280;49382;-25.924;28.194;2023-05-29T00:02:26;85394.00;;;17.63;39.94
40948;BME280;49382;-25.924;28.194;2023-05-29T00:04:51;85396.08;;;17.30;40.70
40948;BME280;49382;-25.924;28.194;2023-05-29T00:07:17;85393.98;;;17.48;40.12
40948;BME280;49382;-25.924;28.194;2023-05-29T00:09:41;85394.85;;;17.77;39.77
40948;BME280;49382;-25.924;28.194;2023-05-29T00:12:07;85391.26;;;17.63;39.78
40948;BME280;49382;-25.924;28.194;2023-05-29T00:14:32;85389.56;;;18.29;39.23
40948;BME280;49382;-25.924;28.194;2023-05-29T00:16:57;85392.04;;;18.19;39.04
40948;BME280;49382;-25.924;28.194;2023-05-29T00:19:22;85393.04;;;17.43;40.17
40948;BME280;49382;-25.924;28.194;2023-05-29T00:21:47;85396.18;;;18.43;38.91
40948;BME280;49382;-25.924;28.194;2023-05-29T00:24:12;85398.45;;;18.55;38.59
40948;BME280;49382;-25.924;28.194;2023-05-29T00:26:37;85400.27;;;17.78;39.66
40948;BME280;49382;-25.924;28.194;2023-05-29T00:29:02;85393.65;;;18.25;39.00
40948;BME280;49382;-25.924;28.194;2023-05-29T00:31:27;85394.52;;;17.62;39.67
40948;BME280;49382;-25.924;28.194;2023-05-29T00:33:52;85395.66;;;18.55;38.50
40948;BME280;49382;-25.924;28.194;2023-05-29T00:36:18;85395.56;;;18.18;38.99
40948;BME280;49382;-25.924;28.194;2023-05-29T00:38:42;85396.15;;;18.56;38.44
40948;BME280;49382;-25.924;28.194;2023-05-29T00:41:07;85395.16;;;18.37;38.63
40948;BME280;49382;-25.924;28.194;2023-05-29T00:43:33;85396.53;;;17.58;39.47
40948;BME280;49382;-25.924;28.194;2023-05-29T00:45:59;85401.89;;;17.34;39.93
40948;BME280;49382;-25.924;28.194;2023-05-29T00:48:24;85399.22;;;17.42;39.89
40948;BME280;49382;-25.924;28.194;2023-05-29T00:50:48;85396.46;;;16.99;41.24
40948;BME280;49382;-25.924;28.194;2023-05-29T00:53:14;85393.49;;;16.47;41.97
40948;BME280;49382;-25.924;28.194;2023-05-29T00:55:39;85390.77;;;16.69;41.41
40948;BME280;49382;-25.924;28.194;2023-05-29T00:58:04;85394.34;;;17.32;40.72
40948;BME280;49382;-25.924;28.194;2023-05-29T01:00:28;85393.65;;;16.91;40.76
40948;BME280;49382;-25.924;28.194;2023-05-29T01:02:53;85395.05;;;16.91;40.77
40948;BME280;49382;-25.924;28.194;2023-05-29T01:05:19;85395.38;;;16.38;41.98
40948;BME280;49382;-25.924;28.194;2023-05-29T01:07:44;85389.64;;;16.60;41.74
40948;BME280;49382;-25.924;28.194;2023-05-29T01:10:10;85389.07;;;16.43;41.87
40948;BME280;49382;-25.924;28.194;2023-05-29T01:12:38;85389.04;;;16.42;42.04
40948;BME280;49382;-25.924;28.194;2023-05-29T01:15:11;85383.69;;;16.42;42.00
40948;BME280;49382;-25.924;28.194;2023-05-29T01:17:28;85381.75;;;16.62;41.57
40948;BME280;49382;-25.924;28.194;2023-05-29T01:20:01;85380.39;;;16.81;41.15
40948;BME280;49382;-25.924;28.194;2023-05-29T01:22:22;85380.35;;;16.68;41.47
40948;BME280;49382;-25.924;28.194;2023-05-29T01:24:47;85382.94;;;16.64;41.44
40948;BME280;49382;-25.924;28.194;2023-05-29T01:27:05;85384.19;;;16.43;41.76
40948;BME280;49382;-25.924;28.194;2023-05-29T01:29:31;85385.21;;;16.94;40.87
40948;BME280;49382;-25.924;28.194;2023-05-29T01:31:55;85383.98;;;16.89;40.81
40948;BME280;49382;-25.924;28.194;2023-05-29T01:34:19;85386.55;;;16.94;40.72
40948;BME280;49382;-25.924;28.194;2023-05-29T01:36:44;85384.48;;;16.56;41.35
40948;BME280;49382;-25.924;28.194;2023-05-29T01:39:10;85386.28;;;16.69;41.09
40948;BME280;49382;-25.924;28.194;2023-05-29T01:41:35;85385.25;;;16.45;41.20
40948;BME280;49382;-25.924;28.194;2023-05-29T01:44:01;85382.18;;;16.35;41.42
40948;BME280;49382;-25.924;28.194;2023-05-29T01:46:24;85384.58;;;16.28;41.48
40948;BME280;49382;-25.924;28.194;2023-05-29T01:48:49;85386.10;;;16.67;40.84
40948;BME280;49382;-25.924;28.194;2023-05-29T01:51:15;85390.48;;;17.25;39.89
40948;BME280;49382;-25.924;28.194;2023-05-29T01:53:41;85384.77;;;17.16;39.91
40948;BME280;49382;-25.924;28.194;2023-05-29T01:56:06;85385.58;;;17.15;40.01
40948;BME280;49382;-25.924;28.194;2023-05-29T01:58:31;85381.91;;;16.70;40.23
40948;BME280;49382;-25.924;28.194;2023-05-29T02:00:55;85379.91;;;16.66;40.47
40948;BME280;49382;-25.924;28.194;2023-05-29T02:03:21;85376.80;;;16.97;40.16
40948;BME280;49382;-25.924;28.194;2023-05-29T02:05:46;85377.14;;;16.21;41.05
40948;BME280;49382;-25.924;28.194;2023-05-29T02:08:11;85373.73;;;16.78;40.27
40948;BME280;49382;-25.924;28.194;2023-05-29T02:10:36;85370.77;;;16.33;40.99
40948;BME280;49382;-25.924;28.194;2023-05-29T02:13:01;85368.77;;;16.86;40.51
40948;BME280;49382;-25.924;28.194;2023-05-29T02:15:26;85366.94;;;16.23;41.40
40948;BME280;49382;-25.924;28.194;2023-05-29T02:17:51;85367.29;;;16.29;41.56
40948;BME280;49382;-25.924;28.194;2023-05-29T02:20:16;85366.40;;;15.75;42.05
40948;BME280;49382;-25.924;28.194;2023-05-29T02:22:42;85363.48;;;16.10;41.09
40948;BME280;49382;-25.924;28.194;2023-05-29T02:25:07;85366.35;;;15.94;41.70
40948;BME280;49382;-25.924;28.194;2023-05-29T02:27:32;85366.45;;;16.05;41.40
40948;BME280;49382;-25.924;28.194;2023-05-29T02:29:57;85372.37;;;16.03;41.84
40948;BME280;49382;-25.924;28.194;2023-05-29T02:32:22;85373.06;;;17.02;39.33
40948;BME280;49382;-25.924;28.194;2023-05-29T02:34:47;85373.05;;;17.64;38.35
40948;BME280;49382;-25.924;28.194;2023-05-29T02:37:12;85374.58;;;16.06;40.80
40948;BME280;49382;-25.924;28.194;2023-05-29T02:39:37;85377.40;;;17.18;39.27
40948;BME280;49382;-25.924;28.194;2023-05-29T02:42:02;85375.16;;;16.85;39.33
40948;BME280;49382;-25.924;28.194;2023-05-29T02:44:27;85370.64;;;16.44;40.13
40948;BME280;49382;-25.924;28.194;2023-05-29T02:46:53;85376.06;;;16.83;39.50
40948;BME280;49382;-25.924;28.194;2023-05-29T02:49:17;85377.35;;;16.71;39.69
40948;BME280;49382;-25.924;28.194;2023-05-29T02:51:43;85378.73;;;16.82;39.63
40948;BME280;49382;-25.924;28.194;2023-05-29T02:54:08;85379.60;;;17.07;39.14
40948;BME280;49382;-25.924;28.194;2023-05-29T02:56:33;85377.54;;;16.39;40.15
40948;BME280;49382;-25.924;28.194;2023-05-29T02:58:58;85379.76;;;15.61;41.48
40948;BME280;49382;-25.924;28.194;2023-05-29T03:01:23;85385.16;;;15.94;41.24
40948;BME280;49382;-25.924;28.194;2023-05-29T03:03:48;85385.36;;;15.40;41.87
40948;BME280;49382;-25.924;28.194;2023-05-29T03:06:13;85383.79;;;15.90;41.73
40948;BME280;49382;-25.924;28.194;2023-05-29T03:08:39;85385.20;;;15.30;42.38
40948;BME280;49382;-25.924;28.194;2023-05-29T03:11:03;85383.48;;;16.45;40.23
40948;BME280;49382;-25.924;28.194;2023-05-29T03:13:28;85387.21;;;16.97;39.66
40948;BME280;49382;-25.924;28.194;2023-05-29T03:15:53;85388.46;;;15.57;41.64
40948;BME280;49382;-25.924;28.194;2023-05-29T03:18:18;85385.40;;;16.41;40.55
40948;BME280;49382;-25.924;28.194;2023-05-29T03:20:43;85384.93;;;16.85;39.89
40948;BME280;49382;-25.924;28.194;2023-05-29T03:23:09;85380.95;;;16.51;40.51
40948;BME280;49382;-25.924;28.194;2023-05-29T03:25:34;85385.98;;;16.20;41.15
40948;BME280;49382;-25.924;28.194;2023-05-29T03:27:59;85389.70;;;16.98;39.82
40948;BME280;49382;-25.924;28.194;2023-05-29T03:30:24;85390.82;;;16.27;40.80
40948;BME280;49382;-25.924;28.194;2023-05-29T03:32:49;85387.32;;;16.44;40.67
40948;BME280;49382;-25.924;28.194;2023-05-29T03:35:14;85388.49;;;16.60;40.29
40948;BME280;49382;-25.924;28.194;2023-05-29T03:37:39;85393.71;;;15.36;42.89
40948;BME280;49382;-25.924;28.194;2023-05-29T03:40:05;85390.34;;;16.16;41.50
40948;BME280;49382;-25.924;28.194;2023-05-29T03:42:29;85392.07;;;16.36;40.94
40948;BME280;49382;-25.924;28.194;2023-05-29T03:44:54;85395.36;;;16.00;41.55
40948;BME280;49382;-25.924;28.194;2023-05-29T03:47:19;85397.42;;;17.03;40.07
40948;BME280;49382;-25.924;28.194;2023-05-29T03:49:44;85399.09;;;16.33;40.76
40948;BME280;49382;-25.924;28.194;2023-05-29T03:52:10;85393.24;;;15.49;42.37
40948;BME280;49382;-25.924;28.194;2023-05-29T03:54:35;85390.62;;;15.40;42.54
40948;BME280;49382;-25.924;28.194;2023-05-29T03:57:00;85393.68;;;15.65;42.26
40948;BME280;49382;-25.924;28.194;2023-05-29T03:59:25;85397.06;;;16.43;40.85
40948;BME280;49382;-25.924;28.194;2023-05-29T04:01:50;85399.90;;;16.01;40.82
40948;BME280;49382;-25.924;28.194;2023-05-29T04:04:15;85404.67;;;16.56;40.40
40948;BME280;49382;-25.924;28.194;2023-05-29T04:06:40;85407.87;;;15.85;40.95
40948;BME280;49382;-25.924;28.194;2023-05-29T04:09:05;85407.94;;;15.79;41.67
40948;BME280;49382;-25.924;28.194;2023-05-29T04:11:30;85410.65;;;15.32;42.05
40948;BME280;49382;-25.924;28.194;2023-05-29T04:13:55;85412.89;;;15.19;42.46
40948;BME280;49382;-25.924;28.194;2023-05-29T04:16:20;85415.85;;;15.89;41.38
40948;BME280;49382;-25.924;28.194;2023-05-29T04:18:45;85417.83;;;15.27;41.88
40948;BME280;49382;-25.924;28.194;2023-05-29T04:21:11;85422.41;;;16.45;39.95
40948;BME280;49382;-25.924;28.194;2023-05-29T04:23:36;85424.51;;;16.90;39.53
40948;BME280;49382;-25.924;28.194;2023-05-29T04:26:01;85424.35;;;16.08;40.09
40948;BME280;49382;-25.924;28.194;2023-05-29T04:28:26;85425.81;;;16.86;38.83
40948;BME280;49382;-25.924;28.194;2023-05-29T04:30:51;85425.10;;;16.77;38.82
40948;BME280;49382;-25.924;28.194;2023-05-29T04:33:19;85427.04;;;16.87;38.59
40948;BME280;49382;-25.924;28.194;2023-05-29T04:35:41;85428.68;;;16.34;39.25
40948;BME280;49382;-25.924;28.194;2023-05-29T04:38:07;85431.64;;;16.51;38.98
40948;BME280;49382;-25.924;28.194;2023-05-29T04:40:32;85434.12;;;16.83;38.57
40948;BME280;49382;-25.924;28.194;2023-05-29T04:42:57;85437.14;;;16.53;38.95
40948;BME280;49382;-25.924;28.194;2023-05-29T04:45:23;85443.45;;;16.42;39.23
40948;BME280;49382;-25.924;28.194;2023-05-29T04:47:47;85445.34;;;16.87;38.55
40948;BME280;49382;-25.924;28.194;2023-05-29T04:50:13;85445.79;;;16.88;38.38
40948;BME280;49382;-25.924;28.194;2023-05-29T04:52:37;85447.37;;;16.81;38.35
40948;BME280;49382;-25.924;28.194;2023-05-29T04:55:02;85451.68;;;16.79;38.24
40948;BME280;49382;-25.924;28.194;2023-05-29T04:57:27;85457.55;;;16.46;38.50
40948;BME280;49382;-25.924;28.194;2023-05-29T04:59:52;85461.77;;;16.10;38.50
40948;BME280;49382;-25.924;28.194;2023-05-29T05:02:17;85461.80;;;15.86;38.98
40948;BME280;49382;-25.924;28.194;2023-05-29T05:04:42;85467.28;;;15.97;38.71
40948;BME280;49382;-25.924;28.194;2023-05-29T05:07:08;85468.44;;;16.31;39.30
40948;BME280;49382;-25.924;28.194;2023-05-29T05:09:32;85475.17;;;16.37;39.08
40948;BME280;49382;-25.924;28.194;2023-05-29T05:11:58;85477.58;;;16.76;39.16
40948;BME280;49382;-25.924;28.194;2023-05-29T05:14:23;85478.48;;;16.73;39.20
40948;BME280;49382;-25.924;28.194;2023-05-29T05:16:48;85484.07;;;16.56;39.28
40948;BME280;49382;-25.924;28.194;2023-05-29T05:19:13;85485.34;;;16.87;39.18
40948;BME280;49382;-25.924;28.194;2023-05-29T05:21:38;85488.68;;;16.86;38.83
40948;BME280;49382;-25.924;28.194;2023-05-29T05:24:03;85487.16;;;16.39;39.47
40948;BME280;49382;-25.924;28.194;2023-05-29T05:26:28;85487.36;;;16.57;39.32
40948;BME280;49382;-25.924;28.194;2023-05-29T05:28:53;85487.57;;;16.37;39.88
40948;BME280;49382;-25.924;28.194;2023-05-29T05:31:18;85492.27;;;15.51;40.95
40948;BME280;49382;-25.924;28.194;2023-05-29T05:33:43;85493.67;;;16.46;40.01
40948;BME280;49382;-25.924;28.194;2023-05-29T05:36:08;85500.24;;;16.27;39.73
40948;BME280;49382;-25.924;28.194;2023-05-29T05:38:33;85501.92;;;16.89;39.25
40948;BME280;49382;-25.924;28.194;2023-05-29T05:40:59;85511.50;;;17.02;38.75
40948;BME280;49382;-25.924;28.194;2023-05-29T05:43:24;85510.81;;;16.62;39.17
40948;BME280;49382;-25.924;28.194;2023-05-29T05:45:49;85512.45;;;16.68;39.15
40948;BME280;49382;-25.924;28.194;2023-05-29T05:48:14;85511.06;;;17.03;38.61
40948;BME280;49382;-25.924;28.194;2023-05-29T05:50:39;85518.42;;;17.24;38.60
40948;BME280;49382;-25.924;28.194;2023-05-29T05:53:04;85525.75;;;17.14;38.31
40948;BME280;49382;-25.924;28.194;2023-05-29T05:55:30;85527.16;;;17.29;38.25
40948;BME280;49382;-25.924;28.194;2023-05-29T05:57:55;85531.85;;;17.04;38.23
40948;BME280;49382;-25.924;28.194;2023-05-29T06:00:21;85537.94;;;17.36;38.07
40948;BME280;49382;-25.924;28.194;2023-05-29T06:02:45;85540.55;;;17.07;37.98
40948;BME280;49382;-25.924;28.194;2023-05-29T06:05:10;85542.59;;;17.28;37.63
40948;BME280;49382;-25.924;28.194;2023-05-29T06:07:35;85541.14;;;17.90;37.20
40948;BME280;49382;-25.924;28.194;2023-05-29T06:10:00;85547.15;;;17.60;37.31
40948;BME280;49382;-25.924;28.194;2023-05-29T06:12:25;85548.25;;;17.82;37.06
40948;BME280;49382;-25.924;28.194;2023-05-29T06:14:50;85552.33;;;17.75;37.17
40948;BME280;49382;-25.924;28.194;2023-05-29T06:17:15;85550.62;;;17.74;37.06
40948;BME280;49382;-25.924;28.194;2023-05-29T06:19:40;85550.24;;;17.82;37.18
40948;BME280;49382;-25.924;28.194;2023-05-29T06:22:06;85557.81;;;18.34;36.78
40948;BME280;49382;-25.924;28.194;2023-05-29T06:24:30;85563.33;;;19.10;36.42
40948;BME280;49382;-25.924;28.194;2023-05-29T06:26:56;85562.94;;;19.36;36.27
40948;BME280;49382;-25.924;28.194;2023-05-29T06:29:22;85559.56;;;19.04;36.05
40948;BME280;49382;-25.924;28.194;2023-05-29T06:31:47;85558.89;;;19.04;36.10
40948;BME280;49382;-25.924;28.194;2023-05-29T06:34:12;85555.05;;;18.68;36.35
40948;BME280;49382;-25.924;28.194;2023-05-29T06:36:37;85556.23;;;19.00;37.56
40948;BME280;49382;-25.924;28.194;2023-05-29T06:39:02;85556.66;;;18.85;37.59
40948;BME280;49382;-25.924;28.194;2023-05-29T06:41:27;85550.55;;;18.89;38.20
40948;BME280;49382;-25.924;28.194;2023-05-29T06:43:52;85550.31;;;19.82;35.80
40948;BME280;49382;-25.924;28.194;2023-05-29T06:46:18;85546.66;;;19.88;35.58
40948;BME280;49382;-25.924;28.194;2023-05-29T06:48:43;85547.79;;;19.50;35.91
40948;BME280;49382;-25.924;28.194;2023-05-29T06:51:08;85548.38;;;20.85;34.85
40948;BME280;49382;-25.924;28.194;2023-05-29T06:53:35;85555.99;;;23.28;31.36
40948;BME280;49382;-25.924;28.194;2023-05-29T06:56:00;85557.56;;;26.65;26.64
40948;BME280;49382;-25.924;28.194;2023-05-29T06:58:25;85560.98;;;27.52;24.69
40948;BME280;49382;-25.924;28.194;2023-05-29T07:00:51;85571.02;;;28.82;23.61
40948;BME280;49382;-25.924;28.194;2023-05-29T07:03:17;85572.59;;;28.80;22.93
40948;BME280;49382;-25.924;28.194;2023-05-29T07:05:42;85584.27;;;29.85;21.70
40948;BME280;49382;-25.924;28.194;2023-05-29T07:08:08;85587.97;;;30.35;20.75
40948;BME280;49382;-25.924;28.194;2023-05-29T07:10:34;85590.87;;;34.65;17.38
40948;BME280;49382;-25.924;28.194;2023-05-29T07:13:00;85591.58;;;35.65;16.60
40948;BME280;49382;-25.924;28.194;2023-05-29T07:15:26;85592.84;;;38.69;13.92
40948;BME280;49382;-25.924;28.194;2023-05-29T07:17:51;85597.30;;;40.98;12.98
40948;BME280;49382;-25.924;28.194;2023-05-29T07:20:17;85596.86;;;40.42;12.02
40948;BME280;49382;-25.924;28.194;2023-05-29T07:22:43;85591.78;;;40.78;11.81
40948;BME280;49382;-25.924;28.194;2023-05-29T07:25:09;85592.56;;;41.46;10.71
40948;BME280;49382;-25.924;28.194;2023-05-29T07:27:34;85590.98;;;41.80;10.53
40948;BME280;49382;-25.924;28.194;2023-05-29T07:30:00;85575.35;;;39.00;12.09
40948;BME280;49382;-25.924;28.194;2023-05-29T07:32:26;85573.02;;;35.95;13.23
40948;BME280;49382;-25.924;28.194;2023-05-29T07:34:51;85575.81;;;36.95;13.08
40948;BME280;49382;-25.924;28.194;2023-05-29T07:37:17;85573.87;;;35.55;13.94
40948;BME280;49382;-25.924;28.194;2023-05-29T07:39:43;85569.75;;;36.42;14.06
40948;BME280;49382;-25.924;28.194;2023-05-29T07:42:09;85579.64;;;37.57;13.66
40948;BME280;49382;-25.924;28.194;2023-05-29T07:44:35;85572.68;;;34.73;14.85
40948;BME280;49382;-25.924;28.194;2023-05-29T07:47:00;85574.65;;;34.41;14.79
40948;BME280;49382;-25.924;28.194;2023-05-29T07:49:26;85578.29;;;34.91;15.29
40948;BME280;49382;-25.924;28.194;2023-05-29T07:51:52;85574.90;;;32.95;16.26
40948;BME280;49382;-25.924;28.194;2023-05-29T07:54:18;85576.16;;;36.30;14.33
40948;BME280;49382;-25.924;28.194;2023-05-29T07:56:43;85573.37;;;34.99;14.68
40948;BME280;49382;-25.924;28.194;2023-05-29T07:59:09;85582.33;;;40.70;11.31
40948;BME280;49382;-25.924;28.194;2023-05-29T08:01:35;85579.42;;;35.73;13.37
40948;BME280;49382;-25.924;28.194;2023-05-29T08:04:00;85584.64;;;43.27;10.07
40948;BME280;49382;-25.924;28.194;2023-05-29T08:06:26;85585.74;;;40.70;10.74
40948;BME280;49382;-25.924;28.194;2023-05-29T08:08:52;85583.38;;;43.88;8.97
40948;BME280;49382;-25.924;28.194;2023-05-29T08:11:18;85577.51;;;42.90;9.37
40948;BME280;49382;-25.924;28.194;2023-05-29T08:13:42;85567.83;;;38.63;11.10
40948;BME280;49382;-25.924;28.194;2023-05-29T08:16:08;85574.42;;;46.08;7.85
40948;BME280;49382;-25.924;28.194;2023-05-29T08:18:33;85567.54;;;44.09;8.50
40948;BME280;49382;-25.924;28.194;2023-05-29T08:20:59;85560.17;;;42.51;8.90
40948;BME280;49382;-25.924;28.194;2023-05-29T08:23:24;85565.19;;;43.24;9.14
40948;BME280;49382;-25.924;28.194;2023-05-29T08:25:50;85564.47;;;48.49;6.97
40948;BME280;49382;-25.924;28.194;2023-05-29T08:28:15;85560.12;;;48.52;6.19
40948;BME280;49382;-25.924;28.194;2023-05-29T08:30:41;85559.13;;;48.24;6.14
40948;BME280;49382;-25.924;28.194;2023-05-29T08:33:06;85558.88;;;50.29;5.78
40948;BME280;49382;-25.924;28.194;2023-05-29T08:35:32;85554.07;;;48.98;5.36
40948;BME280;49382;-25.924;28.194;2023-05-29T08:37:58;85547.96;;;49.45;5.76
40948;BME280;49382;-25.924;28.194;2023-05-29T08:40:23;85541.86;;;49.01;5.80
40948;BME280;49382;-25.924;28.194;2023-05-29T08:42:55;85544.14;;;49.33;6.59
40948;BME280;49382;-25.924;28.194;2023-05-29T08:45:15;85538.14;;;48.08;5.44
40948;BME280;49382;-25.924;28.194;2023-05-29T08:47:41;85542.12;;;50.26;5.11
40948;BME280;49382;-25.924;28.194;2023-05-29T08:50:07;85535.71;;;47.41;5.51
40948;BME280;49382;-25.924;28.194;2023-05-29T08:52:34;85545.67;;;50.15;4.81
40948;BME280;49382;-25.924;28.194;2023-05-29T08:54:57;85539.45;;;48.88;5.17
40948;BME280;49382;-25.924;28.194;2023-05-29T08:57:22;85546.09;;;50.15;4.48
40948;BME280;49382;-25.924;28.194;2023-05-29T08:59:51;85539.68;;;48.43;4.66
40948;BME280;49382;-25.924;28.194;2023-05-29T09:02:14;85536.95;;;46.81;5.49
40948;BME280;49382;-25.924;28.194;2023-05-29T09:04:42;85537.03;;;49.00;4.97
40948;BME280;49382;-25.924;28.194;2023-05-29T09:07:05;85527.60;;;45.28;6.04
40948;BME280;49382;-25.924;28.194;2023-05-29T09:09:30;85510.83;;;37.79;9.15
40948;BME280;49382;-25.924;28.194;2023-05-29T09:11:57;85500.07;;;34.46;11.81
40948;BME280;49382;-25.924;28.194;2023-05-29T09:16:47;85495.00;;;30.36;16.65
40948;BME280;49382;-25.924;28.194;2023-05-29T09:19:13;85489.21;;;29.01;17.59
40948;BME280;49382;-25.924;28.194;2023-05-29T09:21:40;85490.63;;;27.71;19.94
40948;BME280;49382;-25.924;28.194;2023-05-29T09:24:05;85487.42;;;27.66;18.79
40948;BME280;49382;-25.924;28.194;2023-05-29T09:26:30;85480.83;;;26.09;19.04
40948;BME280;49382;-25.924;28.194;2023-05-29T09:28:55;85478.21;;;26.61;19.46
40948;BME280;49382;-25.924;28.194;2023-05-29T09:31:21;85469.49;;;26.62;19.96
40948;BME280;49382;-25.924;28.194;2023-05-29T09:33:49;85470.25;;;25.26;21.10
40948;BME280;49382;-25.924;28.194;2023-05-29T09:36:21;85465.89;;;24.46;21.96
40948;BME280;49382;-25.924;28.194;2023-05-29T09:38:38;85466.02;;;24.07;23.82
40948;BME280;49382;-25.924;28.194;2023-05-29T09:41:05;85469.20;;;25.44;23.25
40948;BME280;49382;-25.924;28.194;2023-05-29T09:43:31;85459.83;;;24.36;23.12
40948;BME280;49382;-25.924;28.194;2023-05-29T09:45:55;85466.93;;;25.92;22.04
40948;BME280;49382;-25.924;28.194;2023-05-29T09:48:23;85468.47;;;25.45;22.80
40948;BME280;49382;-25.924;28.194;2023-05-29T09:50:47;85468.14;;;25.60;23.29
40948;BME280;49382;-25.924;28.194;2023-05-29T09:53:17;85465.25;;;25.36;23.07
40948;BME280;49382;-25.924;28.194;2023-05-29T09:55:38;85464.72;;;25.40;22.99
40948;BME280;49382;-25.924;28.194;2023-05-29T09:58:05;85464.97;;;25.26;22.55
40948;BME280;49382;-25.924;28.194;2023-05-29T10:00:29;85467.77;;;24.69;24.69
40948;BME280;49382;-25.924;28.194;2023-05-29T10:02:55;85462.89;;;23.98;23.14
40948;BME280;49382;-25.924;28.194;2023-05-29T10:05:21;85460.46;;;24.52;24.08
40948;BME280;49382;-25.924;28.194;2023-05-29T10:07:47;85456.62;;;23.87;22.57
40948;BME280;49382;-25.924;28.194;2023-05-29T10:10:12;85456.22;;;23.72;23.18
40948;BME280;49382;-25.924;28.194;2023-05-29T10:12:38;85449.99;;;24.71;23.10
40948;BME280;49382;-25.924;28.194;2023-05-29T10:15:08;85452.90;;;24.40;22.62
40948;BME280;49382;-25.924;28.194;2023-05-29T10:17:34;85447.03;;;23.22;23.68
40948;BME280;49382;-25.924;28.194;2023-05-29T10:19:56;85441.44;;;24.63;24.81
40948;BME280;49382;-25.924;28.194;2023-05-29T10:22:21;85432.22;;;24.51;21.74
40948;BME280;49382;-25.924;28.194;2023-05-29T10:24:47;85431.62;;;23.99;25.30
40948;BME280;49382;-25.924;28.194;2023-05-29T10:27:12;85427.47;;;24.20;23.27
40948;BME280;49382;-25.924;28.194;2023-05-29T10:29:45;85426.94;;;24.55;22.05
40948;BME280;49382;-25.924;28.194;2023-05-29T10:32:15;85421.18;;;24.73;22.11
40948;BME280;49382;-25.924;28.194;2023-05-29T10:34:33;85418.93;;;24.75;21.14
40948;BME280;49382;-25.924;28.194;2023-05-29T10:37:04;85411.89;;;24.58;21.47
40948;BME280;49382;-25.924;28.194;2023-05-29T10:39:21;85407.93;;;24.66;21.70
40948;BME280;49382;-25.924;28.194;2023-05-29T10:41:47;85403.12;;;24.58;22.41
40948;BME280;49382;-25.924;28.194;2023-05-29T10:49:04;85396.32;;;24.96;22.85
40948;BME280;49382;-25.924;28.194;2023-05-29T10:51:30;85400.81;;;25.16;22.74
40948;BME280;49382;-25.924;28.194;2023-05-29T10:53:56;85399.55;;;23.85;24.33
40948;BME280;49382;-25.924;28.194;2023-05-29T10:56:23;85396.92;;;23.10;24.74
40948;BME280;49382;-25.924;28.194;2023-05-29T10:58:52;85392.64;;;24.11;22.87
40948;BME280;49382;-25.924;28.194;2023-05-29T11:01:13;85386.15;;;23.76;23.68
40948;BME280;49382;-25.924;28.194;2023-05-29T11:03:40;85373.57;;;24.29;23.25
40948;BME280;49382;-25.924;28.194;2023-05-29T11:06:06;85375.08;;;24.51;24.17
40948;BME280;49382;-25.924;28.194;2023-05-29T11:08:33;85370.55;;;24.76;22.60
40948;BME280;49382;-25.924;28.194;2023-05-29T11:10:58;85367.76;;;24.14;23.19
40948;BME280;49382;-25.924;28.194;2023-05-29T11:13:25;85362.15;;;24.28;21.88
40948;BME280;49382;-25.924;28.194;2023-05-29T11:15:47;85363.16;;;24.00;22.86
40948;BME280;49382;-25.924;28.194;2023-05-29T11:18:13;85360.11;;;24.44;22.46
40948;BME280;49382;-25.924;28.194;2023-05-29T11:20:45;85361.05;;;23.71;22.96
40948;BME280;49382;-25.924;28.194;2023-05-29T11:23:05;85354.49;;;22.58;23.69
40948;BME280;49382;-25.924;28.194;2023-05-29T11:25:33;85356.07;;;23.76;22.92
40948;BME280;49382;-25.924;28.194;2023-05-29T11:27:56;85355.78;;;23.81;22.70
40948;BME280;49382;-25.924;28.194;2023-05-29T11:30:22;85354.28;;;24.80;21.79
40948;BME280;49382;-25.924;28.194;2023-05-29T11:32:48;85350.25;;;24.61;21.87
40948;BME280;49382;-25.924;28.194;2023-05-29T11:35:14;85351.91;;;23.74;22.84
40948;BME280;49382;-25.924;28.194;2023-05-29T11:37:42;85345.44;;;24.44;22.27
40948;BME280;49382;-25.924;28.194;2023-05-29T11:40:06;85341.88;;;24.34;22.05
40948;BME280;49382;-25.924;28.194;2023-05-29T11:42:31;85339.31;;;23.80;22.48
40948;BME280;49382;-25.924;28.194;2023-05-29T11:47:23;85340.83;;;24.74;22.03
40948;BME280;49382;-25.924;28.194;2023-05-29T11:49:49;85339.34;;;23.78;22.67
40948;BME280;49382;-25.924;28.194;2023-05-29T11:52:14;85332.89;;;24.83;21.78
40948;BME280;49382;-25.924;28.194;2023-05-29T11:54:40;85331.45;;;25.37;20.98
40948;BME280;49382;-25.924;28.194;2023-05-29T11:57:06;85327.21;;;24.55;21.61
40948;BME280;49382;-25.924;28.194;2023-05-29T11:59:32;85327.36;;;24.69;21.41
40948;BME280;49382;-25.924;28.194;2023-05-29T12:01:58;85328.54;;;25.01;21.28
40948;BME280;49382;-25.924;28.194;2023-05-29T12:04:22;85329.67;;;23.88;22.34
40948;BME280;49382;-25.924;28.194;2023-05-29T12:06:47;85325.06;;;24.24;21.75
40948;BME280;49382;-25.924;28.194;2023-05-29T12:11:38;85325.14;;;24.53;22.11
40948;BME280;49382;-25.924;28.194;2023-05-29T12:14:03;85325.36;;;24.44;21.54
40948;BME280;49382;-25.924;28.194;2023-05-29T12:16:30;85323.32;;;24.39;21.94
40948;BME280;49382;-25.924;28.194;2023-05-29T12:18:54;85321.56;;;24.38;22.32
40948;BME280;49382;-25.924;28.194;2023-05-29T12:21:22;85319.22;;;24.07;22.62
40948;BME280;49382;-25.924;28.194;2023-05-29T12:23:45;85318.32;;;24.21;22.56
40948;BME280;49382;-25.924;28.194;2023-05-29T12:26:11;85312.32;;;24.46;22.13
40948;BME280;49382;-25.924;28.194;2023-05-29T12:28:42;85306.61;;;24.29;21.46
40948;BME280;49382;-25.924;28.194;2023-05-29T12:31:02;85305.15;;;23.97;22.05
40948;BME280;49382;-25.924;28.194;2023-05-29T12:33:30;85303.91;;;24.32;21.56
40948;BME280;49382;-25.924;28.194;2023-05-29T12:35:54;85306.86;;;22.96;22.80
40948;BME280;49382;-25.924;28.194;2023-05-29T12:38:20;85304.77;;;24.66;21.44
40948;BME280;49382;-25.924;28.194;2023-05-29T12:40:48;85300.35;;;24.63;21.35